Terminal Aerodrome Forecast
Issued by NWS Sioux Falls, SD

Home | Current Version | Previous Version | Text Only | Print | Product List | Glossary On
Versions: 1 2 3 4 5 6 7 8 9 10 11 12 13 14 15 16 17
000
FTUS43 KFSD 240005 AAA
TAFHON
TAF AMD
KHON 240005Z 2400/2424 17014G19KT P6SM SCT250
     FM240400 14012KT P6SM SCT250 WS014/18040KT
     FM240800 16016G24KT P6SM BKN200
     FM241700 19014G19KT P6SM BKN150
     FM242100 25011KT P6SM BKN080=

USA.gov is the U.S. government's official web portal to all federal, state and local government web resources and services.